createdAt,value
2022-08-20T00:01:10.896Z,17.11
2022-08-20T00:03:38.946Z,17.16
2022-08-20T00:06:13.170Z,17.18
2022-08-20T00:08:40.248Z,17.17
2022-08-20T00:11:09.765Z,17.19
2022-08-20T00:13:39.264Z,17.17
2022-08-20T00:16:06.715Z,17.16
2022-08-20T00:18:33.869Z,17.15
2022-08-20T00:21:01.284Z,17.14
2022-08-20T00:23:28.347Z,17.10
2022-08-20T00:25:55.463Z,17.05
2022-08-20T00:28:22.427Z,16.97
2022-08-20T00:30:49.441Z,16.87
2022-08-20T00:33:17.843Z,16.82
2022-08-20T00:35:46.452Z,16.71
2022-08-20T00:38:13.513Z,16.67
2022-08-20T00:40:45.891Z,16.57
2022-08-20T00:43:31.232Z,16.46
2022-08-20T00:45:59.505Z,16.37
2022-08-20T00:48:29.055Z,16.33
2022-08-20T00:50:58.005Z,16.27
2022-08-20T00:53:25.223Z,16.23
2022-08-20T00:55:52.281Z,16.17
2022-08-20T00:58:19.217Z,16.11
2022-08-20T01:00:46.865Z,16.04
2022-08-20T01:03:15.185Z,16.01
2022-08-20T01:05:46.777Z,15.98
2022-08-20T01:08:13.778Z,15.95
2022-08-20T01:10:41.663Z,15.90
2022-08-20T01:13:11.154Z,15.84
2022-08-20T01:15:43.321Z,15.80
2022-08-20T01:18:12.013Z,15.77
2022-08-20T01:20:40.660Z,15.73
2022-08-20T01:23:30.761Z,15.70
2022-08-20T01:26:17.658Z,15.67
2022-08-20T01:28:44.912Z,15.65
2022-08-20T01:31:16.105Z,15.61
2022-08-20T01:33:44.651Z,15.57
2022-08-20T01:36:13.524Z,15.55
2022-08-20T01:38:40.763Z,15.52
2022-08-20T01:41:28.274Z,15.46
2022-08-20T01:43:57.149Z,15.38
2022-08-20T01:46:33.321Z,15.38
2022-08-20T01:49:19.204Z,15.36
2022-08-20T01:51:50.375Z,15.31
2022-08-20T01:54:17.256Z,15.31
2022-08-20T01:56:53.701Z,15.28
2022-08-20T01:59:20.727Z,15.27
2022-08-20T02:01:47.988Z,15.25
2022-08-20T02:04:15.547Z,15.23
2022-08-20T02:06:45.418Z,15.24
2022-08-20T02:09:25.766Z,15.24
2022-08-20T02:11:53.421Z,15.25
2022-08-20T02:14:20.530Z,15.25
2022-08-20T02:16:54.775Z,15.26
2022-08-20T02:19:26.122Z,15.27
2022-08-20T02:21:53.795Z,15.24
2022-08-20T02:24:21.140Z,15.22
2022-08-20T02:26:48.429Z,15.23
2022-08-20T02:29:15.960Z,15.26
2022-08-20T02:32:25.066Z,15.24
2022-08-20T02:34:31.200Z,15.20
2022-08-20T02:36:58.159Z,15.25
2022-08-20T02:39:26.872Z,15.29
2022-08-20T02:41:54.048Z,15.29
2022-08-20T02:44:21.170Z,15.28
2022-08-20T02:46:50.163Z,15.28
2022-08-20T02:49:18.372Z,15.28
2022-08-20T02:51:47.006Z,15.32
2022-08-20T02:54:14.688Z,15.34
2022-08-20T02:56:41.952Z,15.38
2022-08-20T02:59:08.770Z,15.38
2022-08-20T03:01:37.951Z,15.37
2022-08-20T03:04:05.023Z,15.40
2022-08-20T03:06:32.530Z,15.40
2022-08-20T03:08:59.608Z,15.42
2022-08-20T03:11:26.467Z,15.44
2022-08-20T03:13:53.384Z,15.43
2022-08-20T03:16:20.325Z,15.46
2022-08-20T03:18:47.573Z,15.47
2022-08-20T03:21:19.011Z,15.48
2022-08-20T03:23:46.130Z,15.50
2022-08-20T03:26:13.219Z,15.54
2022-08-20T03:28:40.257Z,15.56
2022-08-20T03:31:07.511Z,15.62
2022-08-20T03:33:34.399Z,15.68
2022-08-20T03:36:01.603Z,15.74
2022-08-20T03:38:32.406Z,15.82
2022-08-20T03:41:01.177Z,15.84
2022-08-20T03:43:29.383Z,15.76
2022-08-20T03:45:56.619Z,15.70
2022-08-20T03:48:23.722Z,15.65
2022-08-20T03:50:50.977Z,15.59
2022-08-20T03:53:18.146Z,15.63
2022-08-20T03:55:53.778Z,15.69
2022-08-20T03:58:21.725Z,15.85
2022-08-20T04:00:59.839Z,16.04
2022-08-20T04:03:27.067Z,16.20
2022-08-20T04:05:53.960Z,16.30
2022-08-20T04:08:24.757Z,16.38
2022-08-20T04:10:51.590Z,16.46
2022-08-20T04:13:19.413Z,16.54
2022-08-20T04:15:49.692Z,16.65
2022-08-20T04:18:24.312Z,16.78
2022-08-20T04:20:51.479Z,16.89
2022-08-20T04:23:18.383Z,16.98
2022-08-20T04:25:45.269Z,17.08
2022-08-20T04:28:14.614Z,17.15
2022-08-20T04:30:47.551Z,17.22
2022-08-20T04:36:05.636Z,17.37
2022-08-20T04:38:49.422Z,17.35
2022-08-20T04:41:22.493Z,17.30
2022-08-20T04:43:51.437Z,17.22
2022-08-20T04:46:20.653Z,17.09
2022-08-20T04:48:49.141Z,16.98
2022-08-20T04:51:18.080Z,16.89
2022-08-20T04:53:51.713Z,16.86
2022-08-20T04:56:23.618Z,16.85
2022-08-20T04:58:51.501Z,16.89
2022-08-20T05:01:18.676Z,16.97
2022-08-20T05:03:48.061Z,17.09
2022-08-20T05:06:18.583Z,17.21
2022-08-20T05:08:46.784Z,17.30
2022-08-20T05:11:36.038Z,17.45
2022-08-20T05:14:09.172Z,17.57
2022-08-20T05:16:40.721Z,17.61
2022-08-20T05:19:08.918Z,17.65
2022-08-20T05:21:36.056Z,17.61
2022-08-20T05:24:05.931Z,17.51
2022-08-20T05:26:34.200Z,17.50
2022-08-20T05:29:01.065Z,17.58
2022-08-20T05:31:31.008Z,17.62
2022-08-20T05:34:03.921Z,17.67
2022-08-20T05:36:31.039Z,17.67
2022-08-20T05:38:58.123Z,17.66
2022-08-20T05:41:28.797Z,17.64
2022-08-20T05:44:00.741Z,17.70
2022-08-20T05:46:27.966Z,17.76
2022-08-20T05:48:54.802Z,17.79
2022-08-20T05:51:22.079Z,17.80
2022-08-20T05:53:49.046Z,17.88
2022-08-20T05:56:15.971Z,17.97
2022-08-20T05:58:42.888Z,18.07
2022-08-20T06:01:09.917Z,18.17
2022-08-20T06:03:55.578Z,18.25
2022-08-20T06:06:45.951Z,18.23
2022-08-20T06:09:09.406Z,18.21
2022-08-20T06:11:37.415Z,18.21
2022-08-20T06:14:05.059Z,18.31
2022-08-20T06:16:32.297Z,18.37
2022-08-20T06:18:59.199Z,18.44
2022-08-20T06:21:26.452Z,18.59
2022-08-20T06:23:56.775Z,18.69
2022-08-20T06:26:29.954Z,18.69
2022-08-20T06:29:01.676Z,18.71
2022-08-20T06:31:28.759Z,18.65
2022-08-20T06:33:55.788Z,18.61
2022-08-20T06:36:22.691Z,18.62
2022-08-20T06:38:49.876Z,18.66
2022-08-20T06:41:17.479Z,18.56
2022-08-20T06:43:44.401Z,18.45
2022-08-20T06:46:11.287Z,18.26
2022-08-20T06:48:38.443Z,18.29
2022-08-20T06:51:06.930Z,18.32
2022-08-20T06:53:33.975Z,18.31
2022-08-20T06:56:01.030Z,18.34
2022-08-20T06:58:36.175Z,18.40
2022-08-20T07:01:09.381Z,18.49
2022-08-20T07:03:38.523Z,18.61
2022-08-20T07:06:05.789Z,18.68
2022-08-20T07:08:32.788Z,18.77
2022-08-20T07:10:59.990Z,18.72
2022-08-20T07:13:26.869Z,18.56
2022-08-20T07:15:54.418Z,18.38
2022-08-20T07:18:28.614Z,18.26
2022-08-20T07:20:57.576Z,18.18
2022-08-20T07:23:25.252Z,18.13
2022-08-20T07:25:52.325Z,18.04
2022-08-20T07:28:20.746Z,17.97
2022-08-20T07:31:13.692Z,17.95
2022-08-20T07:33:44.449Z,17.97
2022-08-20T07:36:11.946Z,17.96
2022-08-20T07:38:38.809Z,17.98
2022-08-20T07:41:07.047Z,18.06
2022-08-20T07:43:34.240Z,18.07
2022-08-20T07:46:02.307Z,18.29
2022-08-20T07:48:32.155Z,18.47
2022-08-20T07:51:00.688Z,18.73
2022-08-20T07:53:31.150Z,18.79
2022-08-20T07:56:01.093Z,18.85
2022-08-20T07:58:33.515Z,18.96
2022-08-20T08:01:01.815Z,19.00
2022-08-20T08:03:39.436Z,19.07
2022-08-20T08:06:38.904Z,19.08
2022-08-20T08:09:07.060Z,19.05
2022-08-20T08:11:35.128Z,19.03
2022-08-20T08:16:47.665Z,18.85
2022-08-20T08:19:14.896Z,18.77
2022-08-20T08:21:41.800Z,18.69
2022-08-20T08:24:08.775Z,18.66
2022-08-20T08:26:36.017Z,18.60
2022-08-20T08:29:02.983Z,18.54
2022-08-20T08:31:29.948Z,18.47
2022-08-20T08:33:56.884Z,18.42
2022-08-20T08:36:25.336Z,18.45
2022-08-20T08:38:52.317Z,18.47
2022-08-20T08:41:21.912Z,18.53
2022-08-20T08:43:50.621Z,18.61
2022-08-20T08:46:19.203Z,18.68
2022-08-20T08:48:47.761Z,18.80
2022-08-20T08:51:17.339Z,18.87
2022-08-20T08:53:46.864Z,18.84
2022-08-20T08:56:17.389Z,18.79
2022-08-20T08:58:44.700Z,18.70
2022-08-20T09:01:53.153Z,18.59
2022-08-20T09:03:59.916Z,18.49
2022-08-20T09:06:28.452Z,18.42
2022-08-20T09:09:03.526Z,18.37
2022-08-20T09:11:30.775Z,18.26
2022-08-20T09:13:57.684Z,18.18
2022-08-20T09:16:25.520Z,18.09
2022-08-20T09:18:55.127Z,18.01
2022-08-20T09:21:21.967Z,17.98
2022-08-20T09:23:49.125Z,17.95
2022-08-20T09:26:16.288Z,17.92
2022-08-20T09:28:56.012Z,17.90
2022-08-20T09:31:24.509Z,17.89
2022-08-20T09:33:51.918Z,17.89
2022-08-20T09:36:30.717Z,17.88
2022-08-20T09:38:59.915Z,17.80
2022-08-20T09:41:26.889Z,17.70
2022-08-20T09:43:54.607Z,17.65
2022-08-20T09:46:27.333Z,17.63
2022-08-20T09:48:55.118Z,17.55
2022-08-20T09:51:22.786Z,17.57
2022-08-20T09:54:01.800Z,17.54
2022-08-20T09:56:30.913Z,17.45
2022-08-20T09:59:01.051Z,17.52
2022-08-20T10:01:29.829Z,17.53
2022-08-20T10:03:56.722Z,17.49
2022-08-20T10:06:23.623Z,17.49
2022-08-20T10:08:50.655Z,17.50
2022-08-20T10:11:17.983Z,17.52
2022-08-20T10:13:45.338Z,17.51
2022-08-20T10:16:12.287Z,17.51
2022-08-20T10:18:39.261Z,17.49
2022-08-20T10:21:10.368Z,17.48
2022-08-20T10:23:37.331Z,17.49
2022-08-20T10:26:04.630Z,17.56
2022-08-20T10:28:31.522Z,17.64
2022-08-20T10:30:58.486Z,17.74
2022-08-20T10:33:25.606Z,17.67
2022-08-20T10:35:54.770Z,17.66
2022-08-20T10:38:27.027Z,17.68
2022-08-20T10:40:54.010Z,17.77
2022-08-20T10:43:20.929Z,17.82
2022-08-20T10:45:47.975Z,17.83
2022-08-20T10:48:19.461Z,17.88
2022-08-20T10:50:48.291Z,17.93
2022-08-20T10:53:15.277Z,17.95
2022-08-20T10:55:42.189Z,18.00
2022-08-20T10:58:11.379Z,18.07
2022-08-20T11:00:38.904Z,18.10
2022-08-20T11:03:05.804Z,18.23
2022-08-20T11:05:32.899Z,18.34
2022-08-20T11:08:00.963Z,18.51
2022-08-20T11:10:29.352Z,18.67
2022-08-20T11:12:56.419Z,18.88
2022-08-20T11:15:23.536Z,19.11
2022-08-20T11:17:50.498Z,19.29
2022-08-20T11:20:18.356Z,19.49
2022-08-20T11:22:45.499Z,19.57
2022-08-20T11:25:12.487Z,19.61
2022-08-20T11:27:46.602Z,19.73
2022-08-20T11:30:14.998Z,19.88
2022-08-20T11:32:42.189Z,19.93
2022-08-20T11:35:38.398Z,19.89
2022-08-20T11:37:56.938Z,19.78
2022-08-20T11:40:39.824Z,19.77
2022-08-20T11:43:15.984Z,19.70
2022-08-20T11:45:49.146Z,19.65
2022-08-20T11:48:16.988Z,19.66
2022-08-20T11:50:44.002Z,19.70
2022-08-20T11:53:10.877Z,19.76
2022-08-20T11:55:38.710Z,19.75
2022-08-20T11:58:06.006Z,19.81
2022-08-20T12:00:34.130Z,19.85
2022-08-20T12:03:08.671Z,19.99
2022-08-20T12:05:35.839Z,20.08
2022-08-20T12:08:02.852Z,20.16
2022-08-20T12:10:30.096Z,20.28
2022-08-20T12:12:57.484Z,20.44
2022-08-20T12:15:25.458Z,20.70
2022-08-20T12:17:52.540Z,20.99
2022-08-20T12:20:19.795Z,21.24
2022-08-20T12:22:51.654Z,21.25
2022-08-20T12:25:18.617Z,21.11
2022-08-20T12:27:45.778Z,21.03
2022-08-20T12:30:14.354Z,20.89
2022-08-20T12:32:42.536Z,20.74
2022-08-20T12:35:10.150Z,20.53
2022-08-20T12:37:39.401Z,20.51
2022-08-20T12:40:07.974Z,20.44
2022-08-20T12:42:35.014Z,20.40
2022-08-20T12:45:01.985Z,20.37
2022-08-20T12:47:31.740Z,20.30
2022-08-20T12:50:09.354Z,20.17
2022-08-20T12:52:39.646Z,20.13
2022-08-20T12:55:07.334Z,20.12
2022-08-20T12:57:35.492Z,20.14
2022-08-20T13:00:06.460Z,20.15
2022-08-20T13:02:33.689Z,20.14
2022-08-20T13:05:05.265Z,20.16
2022-08-20T13:07:32.724Z,20.17
2022-08-20T13:09:59.817Z,20.21
2022-08-20T13:12:26.825Z,20.28
2022-08-20T13:14:54.146Z,20.38
2022-08-20T13:17:27.395Z,20.43
2022-08-20T13:20:10.489Z,20.45
2022-08-20T13:22:37.538Z,20.46
2022-08-20T13:25:05.324Z,20.39
2022-08-20T13:27:32.306Z,20.36
2022-08-20T13:29:59.362Z,20.28
2022-08-20T13:32:36.320Z,20.30
2022-08-20T13:35:03.509Z,20.30
2022-08-20T13:37:30.653Z,20.32
2022-08-20T13:39:58.353Z,20.26
2022-08-20T13:42:28.129Z,20.21
2022-08-20T13:44:55.156Z,20.16
2022-08-20T13:47:23.480Z,20.16
2022-08-20T13:50:04.082Z,20.13
2022-08-20T13:52:31.747Z,20.07
2022-08-20T13:54:58.882Z,20.03
2022-08-20T13:57:30.416Z,19.98
2022-08-20T14:00:01.901Z,19.94
2022-08-20T14:02:34.054Z,19.92
2022-08-20T14:05:01.139Z,19.94
2022-08-20T14:07:32.491Z,19.93
2022-08-20T14:10:08.532Z,19.93
2022-08-20T14:12:41.010Z,19.96
2022-08-20T14:15:15.304Z,20.00
2022-08-20T14:17:42.968Z,20.03
2022-08-20T14:20:12.231Z,20.05
2022-08-20T14:22:44.784Z,20.08
2022-08-20T14:25:15.500Z,20.07
2022-08-20T14:27:43.360Z,20.06
2022-08-20T14:30:16.665Z,20.09
2022-08-20T14:32:44.221Z,20.09
2022-08-20T14:35:17.052Z,20.10
2022-08-20T14:37:46.944Z,20.11
2022-08-20T14:40:16.285Z,20.10
2022-08-20T14:42:43.715Z,20.09
2022-08-20T14:45:14.784Z,20.08
2022-08-20T14:47:43.480Z,20.04
2022-08-20T14:50:25.307Z,20.00
2022-08-20T14:52:54.279Z,20.01
2022-08-20T14:55:22.844Z,20.03
2022-08-20T14:57:50.083Z,20.04
2022-08-20T15:00:19.078Z,20.02
2022-08-20T15:02:46.200Z,20.05
2022-08-20T15:05:13.704Z,20.05
2022-08-20T15:07:42.055Z,20.07
2022-08-20T15:10:12.123Z,20.10
2022-08-20T15:12:38.997Z,20.12
2022-08-20T15:15:15.563Z,20.08
2022-08-20T15:17:44.379Z,20.11
2022-08-20T15:20:20.387Z,20.11
2022-08-20T15:22:48.482Z,20.13
2022-08-20T15:25:16.117Z,20.11
2022-08-20T15:27:43.508Z,20.10
2022-08-20T15:30:17.973Z,20.12
2022-08-20T15:32:46.237Z,20.12
2022-08-20T15:35:13.487Z,20.13
2022-08-20T15:37:48.760Z,20.16
2022-08-20T15:40:17.814Z,20.16
2022-08-20T15:42:56.771Z,20.14
2022-08-20T15:45:23.993Z,20.12
2022-08-20T15:47:52.723Z,20.14
2022-08-20T15:50:26.028Z,20.12
2022-08-20T15:52:53.029Z,20.10
2022-08-20T15:55:19.980Z,20.04
2022-08-20T15:57:54.229Z,20.01
2022-08-20T16:00:22.171Z,19.96
2022-08-20T16:02:56.201Z,19.92
2022-08-20T16:05:23.098Z,19.88
2022-08-20T16:07:58.762Z,19.85
2022-08-20T16:10:44.464Z,19.79
2022-08-20T16:13:40.868Z,19.75
2022-08-20T16:18:53.333Z,19.66
2022-08-20T16:21:22.410Z,19.62
2022-08-20T16:23:49.232Z,19.58
2022-08-20T16:26:25.352Z,19.55
2022-08-20T16:29:14.186Z,19.55
2022-08-20T16:31:52.355Z,19.53
2022-08-20T16:34:33.216Z,19.50
2022-08-20T16:40:00.043Z,19.40
2022-08-20T16:42:29.029Z,19.33
2022-08-20T16:44:55.981Z,19.29
2022-08-20T16:47:22.973Z,19.23
2022-08-20T16:50:00.616Z,19.21
2022-08-20T16:52:27.669Z,19.14
2022-08-20T16:54:54.581Z,19.05
2022-08-20T16:57:21.528Z,19.03
2022-08-20T16:59:56.010Z,18.99
2022-08-20T17:02:23.463Z,18.94
2022-08-20T17:04:58.670Z,18.91
2022-08-20T17:07:51.537Z,18.91
2022-08-20T17:10:28.578Z,18.90
2022-08-20T17:13:00.060Z,18.86
2022-08-20T17:15:28.407Z,18.86
2022-08-20T17:17:56.052Z,18.80
2022-08-20T17:20:24.534Z,18.77
2022-08-20T17:23:04.481Z,18.72
2022-08-20T17:25:33.742Z,18.68
2022-08-20T17:28:00.689Z,18.66
2022-08-20T17:30:35.002Z,18.61
2022-08-20T17:33:03.261Z,18.59
2022-08-20T17:35:38.618Z,18.57
2022-08-20T17:38:05.684Z,18.58
2022-08-20T17:40:41.028Z,18.58
2022-08-20T17:43:09.545Z,18.62
2022-08-20T17:45:39.110Z,18.65
2022-08-20T17:48:07.641Z,18.66
2022-08-20T17:50:37.693Z,18.66
2022-08-20T17:53:14.761Z,18.66
2022-08-20T17:55:42.104Z,18.63
2022-08-20T17:58:14.026Z,18.61
2022-08-20T18:00:42.454Z,18.59
2022-08-20T18:03:15.394Z,18.60
2022-08-20T18:05:46.189Z,18.56
2022-08-20T18:08:30.644Z,18.54
2022-08-20T18:11:01.231Z,18.49
2022-08-20T18:13:48.037Z,18.40
2022-08-20T18:16:22.207Z,18.34
2022-08-20T18:19:18.638Z,18.32
2022-08-20T18:21:45.725Z,18.31
2022-08-20T18:24:16.111Z,18.28
2022-08-20T18:29:31.043Z,18.27
2022-08-20T18:31:59.334Z,18.23
2022-08-20T18:34:29.596Z,18.20
2022-08-20T18:37:01.078Z,18.19
2022-08-20T18:39:31.136Z,18.16
2022-08-20T18:42:04.315Z,18.14
2022-08-20T18:44:41.473Z,18.12
2022-08-20T18:47:22.115Z,18.07
2022-08-20T18:50:05.575Z,18.01
2022-08-20T18:52:55.255Z,17.98
2022-08-20T18:55:30.086Z,18.00
2022-08-20T18:58:00.018Z,18.00
2022-08-20T19:00:30.696Z,18.00
2022-08-20T19:03:11.520Z,18.00
2022-08-20T19:05:44.612Z,17.95
2022-08-20T19:08:16.035Z,17.93
2022-08-20T19:10:42.993Z,17.91
2022-08-20T19:13:12.094Z,17.92
2022-08-20T19:15:43.894Z,17.89
2022-08-20T19:18:11.984Z,17.89
2022-08-20T19:20:39.839Z,17.84
2022-08-20T19:23:08.879Z,17.81
2022-08-20T19:25:37.188Z,17.78
2022-08-20T19:28:33.699Z,17.71
2022-08-20T19:31:16.608Z,17.64
2022-08-20T19:33:51.647Z,17.62
2022-08-20T19:36:28.471Z,17.57
2022-08-20T19:38:56.534Z,17.59
2022-08-20T19:41:31.417Z,17.58
2022-08-20T19:44:04.760Z,17.61
2022-08-20T19:46:36.432Z,17.60
2022-08-20T19:49:21.365Z,17.55
2022-08-20T19:51:55.219Z,17.48
2022-08-20T19:54:23.612Z,17.46
2022-08-20T19:57:10.736Z,17.50
2022-08-20T19:59:37.704Z,17.48
2022-08-20T20:02:21.466Z,17.46
2022-08-20T20:04:54.886Z,17.46
2022-08-20T20:07:24.579Z,17.45
2022-08-20T20:09:53.603Z,17.45
2022-08-20T20:12:22.535Z,17.48
2022-08-20T20:14:50.872Z,17.44
2022-08-20T20:17:23.019Z,17.42
2022-08-20T20:19:57.065Z,17.40
2022-08-20T20:22:28.015Z,17.41
2022-08-20T20:25:00.339Z,17.32
2022-08-20T20:27:29.219Z,17.33
2022-08-20T20:30:11.344Z,17.29
2022-08-20T20:32:39.861Z,17.27
2022-08-20T20:35:07.000Z,17.31
2022-08-20T20:37:49.033Z,17.33
2022-08-20T20:40:21.233Z,17.29
2022-08-20T20:42:57.098Z,17.31
2022-08-20T20:45:24.204Z,17.30
2022-08-20T20:47:51.631Z,17.28
2022-08-20T20:50:29.998Z,17.29
2022-08-20T20:52:57.381Z,17.30
2022-08-20T20:55:31.930Z,17.28
2022-08-20T20:57:59.899Z,17.28
2022-08-20T21:00:30.630Z,17.29
2022-08-20T21:02:57.690Z,17.31
2022-08-20T21:05:27.557Z,17.36
2022-08-20T21:08:02.075Z,17.37
2022-08-20T21:10:35.448Z,17.36
2022-08-20T21:13:05.262Z,17.35
2022-08-20T21:15:32.401Z,17.35
2022-08-20T21:18:00.784Z,17.35
2022-08-20T21:20:28.147Z,17.32
2022-08-20T21:22:59.099Z,17.30
2022-08-20T21:25:26.993Z,17.28
2022-08-20T21:27:55.097Z,17.24
2022-08-20T21:30:22.621Z,17.27
2022-08-20T21:32:49.782Z,17.29
2022-08-20T21:35:16.894Z,17.25
2022-08-20T21:37:43.984Z,17.25
2022-08-20T21:40:11.620Z,17.21
2022-08-20T21:42:39.211Z,17.17
2022-08-20T21:45:06.987Z,17.15
2022-08-20T21:47:33.928Z,17.13
2022-08-20T21:50:01.044Z,17.11
2022-08-20T21:52:27.929Z,17.12
2022-08-20T21:54:54.824Z,17.10
2022-08-20T21:57:23.165Z,17.08
2022-08-20T21:59:50.303Z,17.03
2022-08-20T22:02:19.240Z,17.02
2022-08-20T22:04:46.248Z,16.99
2022-08-20T22:07:13.369Z,16.98
2022-08-20T22:09:40.212Z,16.95
2022-08-20T22:12:08.067Z,16.95
2022-08-20T22:14:35.127Z,16.93
2022-08-20T22:17:02.098Z,16.88
2022-08-20T22:19:29.006Z,16.84
2022-08-20T22:21:56.076Z,16.80
2022-08-20T22:24:22.995Z,16.78
2022-08-20T22:26:49.999Z,16.76
2022-08-20T22:29:17.032Z,16.75
2022-08-20T22:31:43.995Z,16.76
2022-08-20T22:34:11.728Z,16.77
2022-08-20T22:36:38.871Z,16.72
2022-08-20T22:39:06.648Z,16.70
2022-08-20T22:41:33.787Z,16.67
2022-08-20T22:44:00.887Z,16.66
2022-08-20T22:46:29.142Z,16.63
2022-08-20T22:48:56.120Z,16.61
2022-08-20T22:51:24.910Z,16.58
2022-08-20T22:53:51.879Z,16.55
2022-08-20T22:56:19.955Z,16.51
2022-08-20T22:58:50.102Z,16.48
2022-08-20T23:01:19.905Z,16.44
2022-08-20T23:03:46.962Z,16.39
2022-08-20T23:06:13.916Z,16.35
2022-08-20T23:08:41.961Z,16.31
2022-08-20T23:11:09.061Z,16.27
2022-08-20T23:13:35.902Z,16.27
2022-08-20T23:16:03.203Z,16.26
2022-08-20T23:18:30.159Z,16.23
2022-08-20T23:20:57.409Z,16.21
2022-08-20T23:23:24.701Z,16.22
2022-08-20T23:25:52.170Z,16.22
2022-08-20T23:28:19.726Z,16.19
2022-08-20T23:30:46.934Z,16.16
2022-08-20T23:33:14.147Z,16.14
2022-08-20T23:35:41.099Z,16.12
2022-08-20T23:38:08.269Z,16.09
2022-08-20T23:40:35.428Z,16.06
2022-08-20T23:43:02.494Z,16.02
2022-08-20T23:45:29.458Z,16.01
2022-08-20T23:47:56.402Z,15.99
2022-08-20T23:50:24.744Z,15.98
2022-08-20T23:52:51.979Z,15.97
2022-08-20T23:55:19.798Z,15.97
2022-08-20T23:57:46.748Z,15.95
